Time,TemperatureF,DewpointF,PressureIn,WindDirection,WindDirectionDegrees,WindSpeedMPH,WindSpeedGustMPH,Humidity,HourlyPrecipIn,Conditions,Clouds,dailyrainin,SoftwareType,DateUTC
2013-03-23 00:03:00,27.0,6.9,29.26,NW,312,5.0,8.0,42,0.00,CLR,CLR,0.00,WeatherDisplay:10.37,2013-03-23 04:03:00,
2013-03-23 00:08:00,27.1,6.5,29.26,WNW,297,6.0,12.0,41,0.00,CLR,CLR,0.00,WeatherDisplay:10.37,2013-03-23 04:08:00,
2013-03-23 00:13:00,27.3,6.7,29.26,WNW,295,7.0,12.0,41,0.00,CLR,CLR,0.00,WeatherDisplay:10.37,2013-03-23 04:13:00,
2013-03-23 00:18:00,27.3,6.7,29.26,NW,306,6.0,11.0,41,0.00,CLR,CLR,0.00,WeatherDisplay:10.37,2013-03-23 04:18:00,
2013-03-23 00:23:00,27.3,6.7,29.28,NW,308,5.0,9.0,41,0.00,CLR,CLR,0.00,WeatherDisplay:10.37,2013-03-23 04:23:00,
2013-03-23 00:28:00,27.3,6.6,29.29,WNW,296,3.0,8.0,41,0.00,CLR,CLR,0.00,WeatherDisplay:10.37,2013-03-23 04:28:00,
2013-03-23 00:38:00,27.0,5.8,29.27,WNW,288,3.0,10.0,40,0.00,CLR,CLR,0.00,WeatherDisplay:10.37,2013-03-23 04:38:00,
2013-03-23 00:48:00,27.0,5.3,29.26,NW,305,3.0,10.0,39,0.00,CLR,CLR,0.00,WeatherDisplay:10.37,2013-03-23 04:48:00,
2013-03-23 00:58:00,26.6,4.9,29.26,WNW,296,2.0,8.0,39,0.00,CLR,CLR,0.00,WeatherDisplay:10.37,2013-03-23 04:58:00,
2013-03-23 01:03:00,26.4,4.8,29.26,WNW,294,3.0,6.0,39,0.00,CLR,CLR,0.00,WeatherDisplay:10.37,2013-03-23 05:03:00,
2013-03-23 01:08:00,26.2,4.6,29.28,SW,225,3.0,6.0,39,0.00,CLR,CLR,0.00,WeatherDisplay:10.37,2013-03-23 05:08:00,
2013-03-23 01:18:00,25.5,4.0,29.29,SSW,193,3.0,6.0,39,0.00,CLR,CLR,0.00,WeatherDisplay:10.37,2013-03-23 05:18:00,
2013-03-23 01:28:00,25.4,4.4,29.26,West,266,6.0,15.0,40,0.00,CLR,CLR,0.00,WeatherDisplay:10.37,2013-03-23 05:28:00,
2013-03-23 01:38:00,25.9,4.8,29.26,West,270,6.0,10.0,40,0.00,CLR,CLR,0.00,WeatherDisplay:10.37,2013-03-23 05:38:00,
2013-03-23 01:48:00,25.9,4.3,29.26,WNW,285,5.0,10.0,39,0.00,CLR,CLR,0.00,WeatherDisplay:10.37,2013-03-23 05:48:00,
2013-03-23 01:58:00,25.7,4.7,29.26,WSW,255,3.0,10.0,40,0.00,CLR,CLR,0.00,WeatherDisplay:10.37,2013-03-23 05:58:00,
2013-03-23 02:08:00,25.5,4.5,29.26,West,273,3.0,8.0,40,0.00,CLR,CLR,0.00,WeatherDisplay:10.37,2013-03-23 06:08:00,
2013-03-23 02:13:00,25.5,4.5,29.26,West,262,5.0,6.0,40,0.00,CLR,CLR,0.00,WeatherDisplay:10.37,2013-03-23 06:13:00,
2013-03-23 02:18:00,25.5,4.5,29.26,West,262,3.0,6.0,40,0.00,CLR,CLR,0.00,WeatherDisplay:10.37,2013-03-23 06:18:00,
2013-03-23 02:28:00,25.5,5.0,29.26,WSW,255,3.0,6.0,41,0.00,CLR,CLR,0.00,WeatherDisplay:10.37,2013-03-23 06:28:00,
2013-03-23 02:38:00,25.5,5.0,29.26,West,280,3.0,8.0,41,0.00,CLR,CLR,0.00,WeatherDisplay:10.37,2013-03-23 06:38:00,
2013-03-23 02:48:00,25.3,4.9,29.26,West,279,0.0,5.0,41,0.00,CLR,CLR,0.00,WeatherDisplay:10.37,2013-03-23 06:48:00,
2013-03-23 02:58:00,25.3,4.9,29.24,WNW,296,3.0,8.0,41,0.00,CLR,CLR,0.00,WeatherDisplay:10.37,2013-03-23 06:58:00,
2013-03-23 03:03:00,25.5,5.0,29.24,WNW,282,5.0,10.0,41,0.00,CLR,CLR,0.00,WeatherDisplay:10.37,2013-03-23 07:03:00,
2013-03-23 03:08:00,25.5,4.5,29.24,West,269,6.0,10.0,40,0.00,CLR,CLR,0.00,WeatherDisplay:10.37,2013-03-23 07:08:00,
2013-03-23 03:18:00,25.5,4.5,29.24,West,271,5.0,6.0,40,0.00,CLR,CLR,0.00,WeatherDisplay:10.37,2013-03-23 07:18:00,
2013-03-23 03:28:00,25.3,4.3,29.24,West,260,5.0,6.0,40,0.00,CLR,CLR,0.00,WeatherDisplay:10.37,2013-03-23 07:28:00,
2013-03-23 03:38:00,25.0,4.0,29.24,West,263,2.0,6.0,40,0.00,CLR,CLR,0.00,WeatherDisplay:10.37,2013-03-23 07:38:00,
2013-03-23 03:48:00,24.6,3.7,29.24,SW,225,0.0,4.0,40,0.00,CLR,CLR,0.00,WeatherDisplay:10.37,2013-03-23 07:48:00,
2013-03-23 03:58:00,23.9,3.6,29.24,SSW,193,3.0,6.0,41,0.00,CLR,CLR,0.00,WeatherDisplay:10.37,2013-03-23 07:58:00,
2013-03-23 04:03:00,23.7,3.4,29.24,SSW,194,0.0,4.0,41,0.00,CLR,CLR,0.00,WeatherDisplay:10.37,2013-03-23 08:03:00,
2013-03-23 04:08:00,23.5,3.3,29.22,WSW,258,0.0,4.0,41,0.00,CLR,CLR,0.00,WeatherDisplay:10.37,2013-03-23 08:08:00,
2013-03-23 04:18:00,23.4,3.1,29.20,WSW,247,3.0,6.0,41,0.00,CLR,CLR,0.00,WeatherDisplay:10.37,2013-03-23 08:18:00,
2013-03-23 04:28:00,23.4,3.6,29.20,SW,235,1.0,4.0,42,0.00,CLR,CLR,0.00,WeatherDisplay:10.37,2013-03-23 08:28:00,
2013-03-23 04:38:00,23.0,3.3,29.20,South,182,2.0,6.0,42,0.00,CLR,CLR,0.00,WeatherDisplay:10.37,2013-03-23 08:38:00,
2013-03-23 04:48:00,22.8,3.1,29.20,SSW,199,1.0,4.0,42,0.00,CLR,CLR,0.00,WeatherDisplay:10.37,2013-03-23 08:48:00,
2013-03-23 04:57:00,22.8,3.1,29.20,WSW,255,3.0,7.0,42,0.00,CLR,CLR,0.00,WeatherDisplay:10.37,2013-03-23 08:57:00,
2013-03-23 05:02:00,23.0,3.3,29.20,West,260,3.0,6.0,42,0.00,CLR,CLR,0.00,WeatherDisplay:10.37,2013-03-23 09:02:00,
2013-03-23 05:07:00,23.0,3.3,29.20,WSW,253,2.0,6.0,42,0.00,CLR,CLR,0.00,WeatherDisplay:10.37,2013-03-23 09:07:00,
2013-03-23 05:17:00,23.0,3.3,29.20,West,262,3.0,6.0,42,0.00,CLR,CLR,0.00,WeatherDisplay:10.37,2013-03-23 09:17:00,
2013-03-23 05:27:00,23.0,3.3,29.20,West,259,2.0,6.0,42,0.00,CLR,CLR,0.00,WeatherDisplay:10.37,2013-03-23 09:27:00,
2013-03-23 05:37:00,22.8,3.1,29.20,WSW,252,3.0,6.0,42,0.00,CLR,CLR,0.00,WeatherDisplay:10.37,2013-03-23 09:37:00,
2013-03-23 05:47:00,22.8,3.6,29.20,WNW,282,2.0,6.0,43,0.00,CLR,CLR,0.00,WeatherDisplay:10.37,2013-03-23 09:47:00,
2013-03-23 05:57:00,23.0,3.8,29.20,West,281,2.0,6.0,43,0.00,CLR,CLR,0.00,WeatherDisplay:10.37,2013-03-23 09:57:00,
2013-03-23 06:02:00,25.4,-52.0,29.20,WSW,241,2.0,5.0,2,0.00,CLR,CLR,0.00,WeatherDisplay:10.37,2013-03-23 10:02:00,
2013-03-23 06:07:00,22.8,3.6,29.20,South,188,0.0,4.0,43,0.00,CLR,CLR,0.00,WeatherDisplay:10.37,2013-03-23 10:07:00,
2013-03-23 06:17:00,22.5,3.3,29.20,ESE,119,0.0,3.0,43,0.00,CLR,CLR,0.00,WeatherDisplay:10.37,2013-03-23 10:17:00,
2013-03-23 06:27:00,22.3,3.1,29.20,ENE,57,0.0,0.0,43,0.00,CLR,CLR,0.00,WeatherDisplay:10.37,2013-03-23 10:27:00,
2013-03-23 06:37:00,21.9,2.8,29.20,SE,144,0.0,3.0,43,0.00,CLR,CLR,0.00,WeatherDisplay:10.37,2013-03-23 10:37:00,
2013-03-23 06:42:00,21.7,2.6,29.20,South,173,0.0,4.0,43,0.00,CLR,CLR,0.00,WeatherDisplay:10.37,2013-03-23 10:42:00,
2013-03-23 06:52:00,21.7,2.6,29.20,SSE,155,2.0,4.0,43,0.00,CLR,CLR,0.00,WeatherDisplay:10.37,2013-03-23 10:52:00,
2013-03-23 06:57:00,21.9,2.8,29.20,SSE,162,3.0,6.0,43,0.00,CLR,CLR,0.00,WeatherDisplay:10.37,2013-03-23 10:57:00,
2013-03-23 07:07:00,22.5,3.3,29.20,SE,125,0.0,0.0,43,0.00,CLR,CLR,0.00,WeatherDisplay:10.37,2013-03-23 11:07:00,
2013-03-23 07:17:00,23.4,4.6,29.20,South,186,5.0,6.0,44,0.00,CLR,CLR,0.00,WeatherDisplay:10.37,2013-03-23 11:17:00,
2013-03-23 07:27:00,24.3,5.4,29.20,SSW,193,5.0,8.0,44,0.00,CLR,CLR,0.00,WeatherDisplay:10.37,2013-03-23 11:27:00,
2013-03-23 07:37:00,25.0,5.6,29.20,SSW,193,2.0,6.0,43,0.00,CLR,CLR,0.00,WeatherDisplay:10.37,2013-03-23 11:37:00,
2013-03-23 07:47:00,25.3,5.9,29.20,South,190,2.0,6.0,43,0.00,CLR,CLR,0.00,WeatherDisplay:10.37,2013-03-23 11:47:00,
2013-03-23 07:57:00,25.4,6.0,29.20,South,188,5.0,6.0,43,0.00,CLR,CLR,0.00,WeatherDisplay:10.37,2013-03-23 11:57:00,
2013-03-23 08:02:00,25.6,6.1,29.20,SSW,192,3.0,9.0,43,0.00,CLR,CLR,0.00,WeatherDisplay:10.37,2013-03-23 12:02:00,
2013-03-23 08:07:00,25.8,6.4,29.20,South,189,3.0,6.0,43,0.00,CLR,CLR,0.00,WeatherDisplay:10.37,2013-03-23 12:07:00,
2013-03-23 08:17:00,26.2,6.2,29.20,South,186,5.0,6.0,42,0.00,CLR,CLR,0.00,WeatherDisplay:10.37,2013-03-23 12:17:00,
2013-03-23 08:27:00,26.6,6.6,29.18,South,178,3.0,6.0,42,0.00,CLR,CLR,0.00,WeatherDisplay:10.37,2013-03-23 12:27:00,
2013-03-23 08:32:00,26.8,6.7,29.18,South,187,3.0,7.0,42,0.00,CLR,CLR,0.00,WeatherDisplay:10.37,2013-03-23 12:32:00,
2013-03-23 08:37:00,27.0,6.9,29.18,South,189,2.0,5.0,42,0.00,CLR,CLR,0.00,WeatherDisplay:10.37,2013-03-23 12:37:00,
2013-03-23 08:47:00,27.5,7.4,29.18,South,175,0.0,3.0,42,0.00,CLR,CLR,0.00,WeatherDisplay:10.37,2013-03-23 12:47:00,
2013-03-23 09:02:00,28.4,7.7,29.18,SSW,198,2.0,6.0,41,0.00,CLR,CLR,0.00,WeatherDisplay:10.37,2013-03-23 13:02:00,
2013-03-23 09:07:00,28.8,8.5,29.18,SSW,196,6.0,9.0,42,0.00,CLR,CLR,0.00,WeatherDisplay:10.37,2013-03-23 13:07:00,
2013-03-23 09:17:00,29.6,8.7,29.18,SW,214,2.0,8.0,41,0.00,CLR,CLR,0.00,WeatherDisplay:10.37,2013-03-23 13:17:00,
2013-03-23 09:27:00,30.3,8.8,29.18,WSW,244,3.0,8.0,40,0.00,CLR,CLR,0.00,WeatherDisplay:10.37,2013-03-23 13:27:00,
2013-03-23 09:37:00,30.9,8.8,29.18,West,269,6.0,10.0,39,0.00,CLR,CLR,0.00,WeatherDisplay:10.37,2013-03-23 13:37:00,
2013-03-23 09:47:00,31.3,8.6,29.18,West,266,7.0,13.0,38,0.00,CLR,CLR,0.00,WeatherDisplay:10.37,2013-03-23 13:47:00,
2013-03-23 09:57:00,31.6,8.9,29.18,West,272,7.0,13.0,38,0.00,CLR,CLR,0.00,WeatherDisplay:10.37,2013-03-23 13:57:00,
2013-03-23 10:02:00,31.8,8.5,29.18,West,267,8.0,17.0,37,0.00,CLR,CLR,0.00,WeatherDisplay:10.37,2013-03-23 14:02:00,
2013-03-23 10:07:00,31.9,8.5,29.18,West,265,7.0,12.0,37,0.00,CLR,CLR,0.00,WeatherDisplay:10.37,2013-03-23 14:07:00,
2013-03-23 10:17:00,32.4,8.9,29.18,West,272,7.0,13.0,37,0.00,CLR,CLR,0.00,WeatherDisplay:10.37,2013-03-23 14:17:00,
2013-03-23 10:27:00,32.7,8.7,29.15,West,279,7.0,9.0,36,0.00,CLR,CLR,0.00,WeatherDisplay:10.37,2013-03-23 14:27:00,
2013-03-23 10:42:00,33.1,8.4,29.15,West,261,6.0,13.0,35,0.00,CLR,CLR,0.00,WeatherDisplay:10.37,2013-03-23 14:42:00,
2013-03-23 10:47:00,33.6,8.8,29.15,WNW,286,5.0,12.0,35,0.00,CLR,CLR,0.00,WeatherDisplay:10.37,2013-03-23 14:47:00,
2013-03-23 10:57:00,34.2,8.7,29.15,West,277,7.0,15.0,34,0.00,CLR,CLR,0.00,WeatherDisplay:10.37,2013-03-23 14:57:00,
2013-03-23 11:02:00,34.3,8.2,29.15,West,267,12.0,21.0,33,0.00,CLR,CLR,0.00,WeatherDisplay:10.37,2013-03-23 15:02:00,
2013-03-23 11:07:00,34.7,8.5,29.15,West,262,8.0,17.0,33,0.00,CLR,CLR,0.00,WeatherDisplay:10.37,2013-03-23 15:07:00,
2013-03-23 11:17:00,35.1,8.1,29.15,WNW,282,10.0,17.0,32,0.00,CLR,CLR,0.00,WeatherDisplay:10.37,2013-03-23 15:17:00,
2013-03-23 11:22:00,35.1,8.1,29.15,WNW,292,9.0,20.0,32,0.00,CLR,CLR,0.00,WeatherDisplay:10.37,2013-03-23 15:22:00,
2013-03-23 11:32:00,35.2,8.3,29.15,WNW,282,10.0,17.0,32,0.00,CLR,CLR,0.00,WeatherDisplay:10.37,2013-03-23 15:32:00,
2013-03-23 11:37:00,35.4,8.4,29.15,WNW,284,12.0,19.0,32,0.00,CLR,CLR,0.00,WeatherDisplay:10.37,2013-03-23 15:37:00,
2013-03-23 11:47:00,35.4,8.4,29.12,WNW,302,13.0,24.0,32,0.00,CLR,CLR,0.00,WeatherDisplay:10.37,2013-03-23 15:47:00,
2013-03-23 11:57:00,35.8,8.8,29.15,West,271,9.0,14.0,32,0.00,CLR,CLR,0.00,WeatherDisplay:10.37,2013-03-23 15:57:00,
2013-03-23 12:07:00,35.8,8.8,29.15,WNW,303,8.0,13.0,32,0.00,CLR,CLR,0.00,WeatherDisplay:10.37,2013-03-23 16:07:00,
2013-03-23 12:17:00,36.1,9.1,29.15,WNW,302,12.0,17.0,32,0.00,CLR,CLR,0.00,WeatherDisplay:10.37,2013-03-23 16:17:00,
2013-03-23 12:27:00,36.3,9.2,29.15,West,273,9.0,15.0,32,0.00,CLR,CLR,0.00,WeatherDisplay:10.37,2013-03-23 16:27:00,
2013-03-23 12:37:00,36.3,9.2,29.15,WNW,290,8.0,18.0,32,0.00,CLR,CLR,0.00,WeatherDisplay:10.37,2013-03-23 16:37:00,
2013-03-23 12:43:00,36.7,8.9,29.15,WNW,293,10.0,16.0,31,0.00,CLR,CLR,0.00,WeatherDisplay:10.37,2013-03-23 16:43:00,
2013-03-23 12:48:00,36.7,8.8,29.15,West,279,7.0,13.0,31,0.00,CLR,CLR,0.00,WeatherDisplay:10.37,2013-03-23 16:48:00,
2013-03-23 12:58:00,37.0,9.1,29.15,WNW,295,8.0,15.0,31,0.00,CLR,CLR,0.00,WeatherDisplay:10.37,2013-03-23 16:58:00,
2013-03-23 13:03:00,37.2,9.3,29.15,WNW,296,7.0,12.0,31,0.00,CLR,CLR,0.00,WeatherDisplay:10.37,2013-03-23 17:03:00,
2013-03-23 13:08:00,37.0,9.2,29.15,NW,307,9.0,20.0,31,0.00,CLR,CLR,0.00,WeatherDisplay:10.37,2013-03-23 17:08:00,
2013-03-23 13:18:00,36.9,9.0,29.15,WNW,302,9.0,17.0,31,0.00,CLR,CLR,0.00,WeatherDisplay:10.37,2013-03-23 17:18:00,
2013-03-23 13:28:00,36.7,8.8,29.15,West,277,12.0,24.0,31,0.00,CLR,CLR,0.00,WeatherDisplay:10.37,2013-03-23 17:28:00,
2013-03-23 13:38:00,36.7,9.5,29.15,NW,306,9.0,22.0,32,0.00,CLR,CLR,0.00,WeatherDisplay:10.37,2013-03-23 17:38:00,
2013-03-23 13:48:00,36.3,9.2,29.15,WNW,286,12.0,20.0,32,0.00,CLR,CLR,0.00,WeatherDisplay:10.37,2013-03-23 17:48:00,
2013-03-23 13:58:00,36.1,9.8,29.15,WNW,285,6.0,14.0,33,0.00,CLR,CLR,0.00,WeatherDisplay:10.37,2013-03-23 17:58:00,
2013-03-23 14:03:00,36.1,9.8,29.15,WNW,287,9.0,18.0,33,0.00,CLR,CLR,0.00,WeatherDisplay:10.37,2013-03-23 18:03:00,
2013-03-23 14:08:00,36.0,9.7,29.15,WNW,286,8.0,13.0,33,0.00,CLR,CLR,0.00,WeatherDisplay:10.37,2013-03-23 18:08:00,
2013-03-23 14:13:00,36.1,9.8,29.15,West,281,9.0,18.0,33,0.00,CLR,CLR,0.00,WeatherDisplay:10.37,2013-03-23 18:13:00,
2013-03-23 14:18:00,36.1,9.8,29.15,West,277,8.0,15.0,33,0.00,CLR,CLR,0.00,WeatherDisplay:10.37,2013-03-23 18:18:00,
2013-03-23 14:28:00,36.3,9.2,29.15,WNW,284,9.0,22.0,32,0.00,CLR,CLR,0.00,WeatherDisplay:10.37,2013-03-23 18:28:00,
2013-03-23 14:38:00,36.7,9.6,29.15,NW,312,8.0,15.0,32,0.00,CLR,CLR,0.00,WeatherDisplay:10.37,2013-03-23 18:38:00,
2013-03-23 14:48:00,37.2,10.0,29.15,WNW,282,12.0,18.0,32,0.00,CLR,CLR,0.00,WeatherDisplay:10.37,2013-03-23 18:48:00,
2013-03-23 14:58:00,36.9,9.7,29.15,West,276,8.0,16.0,32,0.00,CLR,CLR,0.00,WeatherDisplay:10.37,2013-03-23 18:58:00,
2013-03-23 15:03:00,37.1,9.9,29.15,WNW,283,8.0,10.0,32,0.00,CLR,CLR,0.00,WeatherDisplay:10.37,2013-03-23 19:03:00,
2013-03-23 15:08:00,37.0,9.8,29.17,WNW,294,10.0,16.0,32,0.00,CLR,CLR,0.00,WeatherDisplay:10.37,2013-03-23 19:08:00,
2013-03-23 15:18:00,36.3,9.2,29.18,WNW,285,12.0,21.0,32,0.00,CLR,CLR,0.00,WeatherDisplay:10.37,2013-03-23 19:18:00,
2013-03-23 15:23:00,36.3,9.2,29.18,WNW,295,9.0,23.0,32,0.00,CLR,CLR,0.00,WeatherDisplay:10.37,2013-03-23 19:23:00,
2013-03-23 15:28:00,36.1,9.1,29.18,WNW,295,10.0,17.0,32,0.00,CLR,CLR,0.00,WeatherDisplay:10.37,2013-03-23 19:28:00,
2013-03-23 15:38:00,36.5,9.4,29.18,WNW,286,10.0,17.0,32,0.00,CLR,CLR,0.00,WeatherDisplay:10.37,2013-03-23 19:38:00,
2013-03-23 15:48:00,37.2,10.0,29.18,WNW,301,9.0,20.0,32,0.00,CLR,CLR,0.00,WeatherDisplay:10.37,2013-03-23 19:48:00,
2013-03-23 15:53:00,36.8,9.7,29.18,WNW,289,10.0,23.0,32,0.00,CLR,CLR,0.00,WeatherDisplay:10.37,2013-03-23 19:53:00,
2013-03-23 16:03:00,36.5,9.4,29.18,West,279,8.0,17.0,32,0.00,CLR,CLR,0.00,WeatherDisplay:10.37,2013-03-23 20:03:00,
2013-03-23 16:08:00,36.7,9.6,29.18,WNW,292,9.0,17.0,32,0.00,CLR,CLR,0.00,WeatherDisplay:10.37,2013-03-23 20:08:00,
2013-03-23 16:18:00,36.7,9.5,29.18,WNW,292,8.0,15.0,32,0.00,CLR,CLR,0.00,WeatherDisplay:10.37,2013-03-23 20:18:00,
2013-03-23 16:28:00,36.7,9.5,29.20,WNW,282,9.0,15.0,32,0.00,CLR,CLR,0.00,WeatherDisplay:10.37,2013-03-23 20:28:00,
2013-03-23 16:38:00,36.0,8.9,29.20,NW,316,14.0,24.0,32,0.00,CLR,CLR,0.00,WeatherDisplay:10.37,2013-03-23 20:38:00,
2013-03-23 16:48:00,36.0,8.9,29.20,NW,305,12.0,17.0,32,0.00,CLR,CLR,0.00,WeatherDisplay:10.37,2013-03-23 20:48:00,
2013-03-23 16:58:00,35.4,9.1,29.20,WNW,300,12.0,23.0,33,0.00,CLR,CLR,0.00,WeatherDisplay:10.37,2013-03-23 20:58:00,
2013-03-23 17:03:00,35.4,9.1,29.20,WNW,301,13.0,18.0,33,0.00,CLR,CLR,0.00,WeatherDisplay:10.37,2013-03-23 21:03:00,
2013-03-23 17:08:00,35.8,9.4,29.20,WNW,297,8.0,15.0,33,0.00,CLR,CLR,0.00,WeatherDisplay:10.37,2013-03-23 21:08:00,
2013-03-23 17:18:00,36.3,9.9,29.20,West,280,5.0,13.0,33,0.00,CLR,CLR,0.00,WeatherDisplay:10.37,2013-03-23 21:18:00,
2013-03-23 17:28:00,36.0,9.6,29.20,WNW,288,7.0,17.0,33,0.00,CLR,CLR,0.00,WeatherDisplay:10.37,2013-03-23 21:28:00,
2013-03-23 17:38:00,35.6,9.3,29.20,WNW,300,10.0,15.0,33,0.00,CLR,CLR,0.00,WeatherDisplay:10.37,2013-03-23 21:38:00,
2013-03-23 17:48:00,36.1,9.8,29.20,West,270,9.0,15.0,33,0.00,CLR,CLR,0.00,WeatherDisplay:10.37,2013-03-23 21:48:00,
2013-03-23 17:53:00,36.0,9.6,29.20,WNW,284,14.0,22.0,33,0.00,CLR,CLR,0.00,WeatherDisplay:10.37,2013-03-23 21:53:00,
2013-03-23 17:58:00,35.8,9.4,29.20,WNW,298,9.0,22.0,33,0.00,CLR,CLR,0.00,WeatherDisplay:10.37,2013-03-23 21:58:00,
2013-03-23 18:08:00,35.4,9.1,29.22,NW,307,7.0,15.0,33,0.00,CLR,CLR,0.00,WeatherDisplay:10.37,2013-03-23 22:08:00,
2013-03-23 18:18:00,35.1,9.5,29.24,NW,309,8.0,15.0,34,0.00,CLR,CLR,0.00,WeatherDisplay:10.37,2013-03-23 22:18:00,
2013-03-23 18:27:00,34.9,9.3,29.24,NW,306,5.0,13.0,34,0.00,CLR,CLR,0.00,WeatherDisplay:10.37,2013-03-23 22:27:00,
2013-03-23 18:32:00,34.9,9.3,29.24,WNW,296,8.0,15.0,34,0.00,CLR,CLR,0.00,WeatherDisplay:10.37,2013-03-23 22:32:00,
2013-03-23 18:37:00,34.9,9.3,29.24,WNW,303,6.0,13.0,34,0.00,CLR,CLR,0.00,WeatherDisplay:10.37,2013-03-23 22:37:00,
2013-03-23 18:47:00,34.5,10.3,29.24,WNW,297,7.0,16.0,36,0.00,CLR,CLR,0.00,WeatherDisplay:10.37,2013-03-23 22:47:00,
2013-03-23 18:57:00,34.3,10.1,29.24,NW,306,5.0,9.0,36,0.00,CLR,CLR,0.00,WeatherDisplay:10.37,2013-03-23 22:57:00,
2013-03-23 19:02:00,34.2,10.6,29.24,WNW,302,8.0,13.0,37,0.00,CLR,CLR,0.00,WeatherDisplay:10.37,2013-03-23 23:02:00,
2013-03-23 19:07:00,34.2,10.6,29.24,WNW,297,5.0,8.0,37,0.00,CLR,CLR,0.00,WeatherDisplay:10.37,2013-03-23 23:07:00,
2013-03-23 19:17:00,33.8,10.8,29.24,WNW,297,5.0,12.0,38,0.00,CLR,CLR,0.00,WeatherDisplay:10.37,2013-03-23 23:17:00,
2013-03-23 19:27:00,33.6,10.7,29.24,West,272,7.0,10.0,38,0.00,CLR,CLR,0.00,WeatherDisplay:10.37,2013-03-23 23:27:00,
2013-03-23 19:37:00,33.6,10.7,29.24,WNW,286,13.0,17.0,38,0.00,CLR,CLR,0.00,WeatherDisplay:10.37,2013-03-23 23:37:00,
2013-03-23 19:47:00,33.6,10.7,29.24,WNW,291,5.0,13.0,38,0.00,CLR,CLR,0.00,WeatherDisplay:10.37,2013-03-23 23:47:00,
2013-03-23 19:57:00,33.6,10.7,29.24,WNW,297,8.0,15.0,38,0.00,CLR,CLR,0.00,WeatherDisplay:10.37,2013-03-23 23:57:00,
2013-03-23 20:02:00,33.8,10.8,29.24,NW,305,3.0,15.0,38,0.00,CLR,CLR,0.00,WeatherDisplay:10.37,2013-03-24 00:02:00,
2013-03-23 20:07:00,33.6,11.3,29.24,WNW,302,9.0,12.0,39,0.00,CLR,CLR,0.00,WeatherDisplay:10.37,2013-03-24 00:07:00,
2013-03-23 20:17:00,33.6,11.3,29.24,NW,306,6.0,13.0,39,0.00,CLR,CLR,0.00,WeatherDisplay:10.37,2013-03-24 00:17:00,
2013-03-23 20:27:00,33.6,11.3,29.26,WNW,292,6.0,17.0,39,0.00,CLR,CLR,0.00,WeatherDisplay:10.37,2013-03-24 00:27:00,
2013-03-23 20:37:00,33.4,11.1,29.26,WNW,301,6.0,12.0,39,0.00,CLR,CLR,0.00,WeatherDisplay:10.37,2013-03-24 00:37:00,
2013-03-23 20:47:00,33.3,10.9,29.26,WNW,297,6.0,12.0,39,0.00,CLR,CLR,0.00,WeatherDisplay:10.37,2013-03-24 00:47:00,
2013-03-23 20:57:00,33.3,11.5,29.26,WNW,291,5.0,10.0,40,0.00,CLR,CLR,0.00,WeatherDisplay:10.37,2013-03-24 00:57:00,
2013-03-23 21:07:00,33.3,11.5,29.26,WNW,300,8.0,12.0,40,0.00,CLR,CLR,0.00,WeatherDisplay:10.37,2013-03-24 01:07:00,
2013-03-23 21:17:00,33.1,11.3,29.26,WNW,298,6.0,8.0,40,0.00,CLR,CLR,0.00,WeatherDisplay:10.37,2013-03-24 01:17:00,
2013-03-23 21:27:00,33.3,11.5,29.29,WNW,301,8.0,13.0,40,0.00,CLR,CLR,0.00,WeatherDisplay:10.37,2013-03-24 01:27:00,
2013-03-23 21:37:00,33.3,11.5,29.29,WNW,298,8.0,10.0,40,0.00,CLR,CLR,0.00,WeatherDisplay:10.37,2013-03-24 01:37:00,
2013-03-23 21:42:00,33.3,11.5,29.29,WNW,298,6.0,9.0,40,0.00,CLR,CLR,0.00,WeatherDisplay:10.37,2013-03-24 01:42:00,
2013-03-23 21:47:00,33.1,11.3,29.29,WNW,291,7.0,13.0,40,0.00,CLR,CLR,0.00,WeatherDisplay:10.37,2013-03-24 01:47:00,
2013-03-23 21:57:00,33.2,11.4,29.26,WNW,292,5.0,13.0,40,0.00,CLR,CLR,0.00,WeatherDisplay:10.37,2013-03-24 01:57:00,
2013-03-23 22:07:00,33.3,11.5,29.26,West,280,8.0,15.0,40,0.00,CLR,CLR,0.00,WeatherDisplay:10.37,2013-03-24 02:07:00,
2013-03-23 22:17:00,33.4,11.7,29.26,WNW,287,5.0,13.0,40,0.00,CLR,CLR,0.00,WeatherDisplay:10.37,2013-03-24 02:17:00,
2013-03-23 22:27:00,33.4,11.7,29.26,NW,306,9.0,13.0,40,0.00,CLR,CLR,0.00,WeatherDisplay:10.37,2013-03-24 02:27:00,
2013-03-23 22:37:00,33.6,11.8,29.26,WNW,303,8.0,13.0,40,0.00,CLR,CLR,0.00,WeatherDisplay:10.37,2013-03-24 02:37:00,
2013-03-23 22:47:00,33.6,11.8,29.26,NW,304,7.0,13.0,40,0.00,CLR,CLR,0.00,WeatherDisplay:10.37,2013-03-24 02:47:00,
2013-03-23 22:57:00,33.6,11.8,29.26,NW,304,8.0,13.0,40,0.00,CLR,CLR,0.00,WeatherDisplay:10.37,2013-03-24 02:57:00,
2013-03-23 23:02:00,33.8,12.0,29.26,WNW,298,8.0,20.0,40,0.00,CLR,CLR,0.00,WeatherDisplay:10.37,2013-03-24 03:02:00,
2013-03-23 23:07:00,33.8,12.0,29.26,WNW,295,8.0,14.0,40,0.00,CLR,CLR,0.00,WeatherDisplay:10.37,2013-03-24 03:07:00,
2013-03-23 23:17:00,33.6,11.8,29.26,NW,304,8.0,14.0,40,0.00,CLR,CLR,0.00,WeatherDisplay:10.37,2013-03-24 03:17:00,
2013-03-23 23:27:00,33.6,11.8,29.26,WNW,299,7.0,12.0,40,0.00,CLR,CLR,0.00,WeatherDisplay:10.37,2013-03-24 03:27:00,
2013-03-23 23:37:00,33.4,11.7,29.26,NW,304,9.0,13.0,40,0.00,CLR,CLR,0.00,WeatherDisplay:10.37,2013-03-24 03:37:00,
2013-03-23 23:42:00,33.4,11.7,29.26,NW,307,9.0,13.0,40,0.00,CLR,CLR,0.00,WeatherDisplay:10.37,2013-03-24 03:42:00,
2013-03-23 23:47:00,33.6,11.8,29.26,NW,312,7.0,14.0,40,0.00,CLR,CLR,0.00,WeatherDisplay:10.37,2013-03-24 03:47:00,
2013-03-23 23:57:00,33.3,11.5,29.26,WNW,301,7.0,9.0,40,0.00,CLR,CLR,0.00,WeatherDisplay:10.37,2013-03-24 03:57:00,